Foraker, Kentucky
Current Conditions -  °F | °C
As of 12:53 AM on Wednesday 22 Oct 2014 (Local Time) from KJKL Reporting Station
Overcast Overcast  
Wind Chill: 44°   Ceiling: 2700
Heat Index: 44°   Visibility: 8mi
Dew Point: 41°   Wind: 0mph
Humidity: 89%   Direction: NA
Pressure: 30.13"   Gusts: NA
Location:  37.7261°N, 83.0786°W
Report Text: KJKL 220453Z AUTO 00000KT 8SM FEW014 SCT022 OVC027 07/05 A3013 RMK AO2 RAB12E44 SLP201 P0001 T00670050 401390067
Loading
Personal Weather Stations






























Interactive Weather Map
Tropical Storm Tracking
New forecast layout! Learn more

10-Day Weather Forecast

Advertisements
Track Severe Weather on mobile